Terminal Aerodrome Forecast
Issued by NWS St Louis, MO

Home | Current Version | Previous Version | Graphics & Text | Print | Product List | Glossary On
Versions: 1 2 3 4 5 6 7 8 9 10 11 12 13 14 15 16 17 18 19 20 21 22 23 24 25 26 27
397
FTUS43 KLSX 141906 AAA
TAFSTL
TAF AMD
KSTL 141906Z 1419/1524 32006KT P6SM OVC035
     FM142100 31004KT P6SM OVC035
     FM150900 27004KT P6SM BKN110
     FM151400 26006KT P6SM BKN045
     FM151700 29010G17KT P6SM SCT040
     FM152200 27008KT P6SM FEW150=

USA.gov is the U.S. government's official web portal to all federal, state and local government web resources and services.